EWG2RH EDDK-LDZA
Flight info
| Callsign | EWG2RH |
|---|---|
| Flight time | 1h 20m |
| Altitude | 39000 |
| Route | KUMIK L603 TESGA DCT ESATI DCT OSBIT DCT TENLO DCT LAMSI DCT LULUD |
| Aircraft | A319/M-SDE3FGHIRWY/LB1 |
Departure
| Time | 2026-04-25 19:17 |
|---|---|
| Airport | Cologne Bonn Airport (EDDK) |
Arrival
| Time | 2026-04-25 20:38 |
|---|---|
| Airport | Zagreb Franjo Tuđman International Airport (LDZA) |
| Time | Latitude | Longitude | Altitude | Speed | Heading |
|---|---|---|---|---|---|
| 2026-04-25 18:31 | 50.87933 | 7.12304 | 232 ft | 0 kts | 175° |
| 2026-04-25 19:05 | 50.87939 | 7.12304 | 232 ft | 4 kts | 172° |
| 2026-04-25 19:05 | 50.87963 | 7.12292 | 233 ft | 3 kts | 171° |
| 2026-04-25 19:06 | 50.87982 | 7.12292 | 232 ft | 4 kts | 211° |
| 2026-04-25 19:06 | 50.88022 | 7.12337 | 232 ft | 4 kts | 216° |
| 2026-04-25 19:06 | 50.88043 | 7.12361 | 232 ft | 4 kts | 212° |
| 2026-04-25 19:07 | 50.88086 | 7.12349 | 232 ft | 4 kts | 128° |
| 2026-04-25 19:07 | 50.88090 | 7.12341 | 235 ft | 0 kts | 126° |
| 2026-04-25 19:10 | 50.88090 | 7.12342 | 232 ft | 1 kts | 126° |
| 2026-04-25 19:10 | 50.88081 | 7.12361 | 234 ft | 5 kts | 126° |
| 2026-04-25 19:10 | 50.88040 | 7.12442 | 232 ft | 12 kts | 136° |
| 2026-04-25 19:11 | 50.87972 | 7.12540 | 234 ft | 15 kts | 137° |
| 2026-04-25 19:11 | 50.87874 | 7.12612 | 232 ft | 18 kts | 184° |
| 2026-04-25 19:11 | 50.87761 | 7.12711 | 233 ft | 21 kts | 137° |
| 2026-04-25 19:11 | 50.87647 | 7.12877 | 233 ft | 24 kts | 137° |
| 2026-04-25 19:12 | 50.87517 | 7.13067 | 233 ft | 27 kts | 138° |
| 2026-04-25 19:12 | 50.87389 | 7.13251 | 233 ft | 25 kts | 138° |
| 2026-04-25 19:12 | 50.87253 | 7.13447 | 234 ft | 27 kts | 137° |
| 2026-04-25 19:12 | 50.87131 | 7.13623 | 239 ft | 23 kts | 137° |
| 2026-04-25 19:13 | 50.87011 | 7.13796 | 243 ft | 24 kts | 137° |
| 2026-04-25 19:13 | 50.86887 | 7.13977 | 254 ft | 23 kts | 137° |
| 2026-04-25 19:13 | 50.86760 | 7.14137 | 255 ft | 25 kts | 159° |
| 2026-04-25 19:13 | 50.86626 | 7.14291 | 261 ft | 25 kts | 137° |
| 2026-04-25 19:14 | 50.86495 | 7.14486 | 267 ft | 26 kts | 137° |
| 2026-04-25 19:14 | 50.86450 | 7.14551 | 269 ft | 26 kts | 137° |
| 2026-04-25 19:14 | 50.86229 | 7.14869 | 285 ft | 26 kts | 137° |
| 2026-04-25 19:14 | 50.86096 | 7.15064 | 291 ft | 27 kts | 137° |
| 2026-04-25 19:15 | 50.85955 | 7.15267 | 294 ft | 28 kts | 137° |
| 2026-04-25 19:15 | 50.85807 | 7.15481 | 299 ft | 30 kts | 138° |
| 2026-04-25 19:15 | 50.85665 | 7.15687 | 303 ft | 23 kts | 137° |
| 2026-04-25 19:15 | 50.85540 | 7.15867 | 307 ft | 25 kts | 137° |
| 2026-04-25 19:16 | 50.85407 | 7.16061 | 308 ft | 28 kts | 137° |
| 2026-04-25 19:16 | 50.85336 | 7.16286 | 308 ft | 23 kts | 87° |
| 2026-04-25 19:16 | 50.85430 | 7.16497 | 308 ft | 26 kts | 24° |
| 2026-04-25 19:16 | 50.85615 | 7.16429 | 308 ft | 37 kts | 318° |
| 2026-04-25 19:17 | 50.85964 | 7.15926 | 300 ft | 99 kts | 317° |
| 2026-04-25 19:17 | 50.86626 | 7.14968 | 282 ft | 156 kts | 317° |
| 2026-04-25 19:17 | 50.87443 | 7.13893 | 959 ft | 150 kts | 322° |
| 2026-04-25 19:17 | 50.88302 | 7.12899 | 1589 ft | 156 kts | 323° |
| 2026-04-25 19:18 | 50.89253 | 7.11860 | 1984 ft | 178 kts | 336° |
| 2026-04-25 19:18 | 50.90512 | 7.11657 | 2485 ft | 195 kts | 8° |
| 2026-04-25 19:18 | 50.91850 | 7.12368 | 3063 ft | 213 kts | 20° |
| 2026-04-25 19:18 | 50.93153 | 7.13531 | 4118 ft | 211 kts | 38° |
| 2026-04-25 19:19 | 50.94036 | 7.15406 | 4950 ft | 230 kts | 59° |
| 2026-04-25 19:19 | 50.94731 | 7.17854 | 5507 ft | 256 kts | 62° |
| 2026-04-25 19:19 | 50.95534 | 7.20501 | 6237 ft | 273 kts | 60° |
| 2026-04-25 19:19 | 50.95821 | 7.21410 | 6544 ft | 276 kts | 60° |
| 2026-04-25 19:20 | 50.97290 | 7.25985 | 8158 ft | 284 kts | 59° |
| 2026-04-25 19:20 | 50.98200 | 7.28811 | 9118 ft | 290 kts | 59° |
| 2026-04-25 19:20 | 50.99122 | 7.31688 | 10037 ft | 295 kts | 59° |
| 2026-04-25 19:20 | 51.00064 | 7.34648 | 10669 ft | 311 kts | 59° |
| 2026-04-25 19:21 | 51.00969 | 7.37911 | 11140 ft | 334 kts | 69° |
| 2026-04-25 19:21 | 51.01333 | 7.45474 | 12683 ft | 357 kts | 97° |
| 2026-04-25 19:21 | 51.00704 | 7.49320 | 13482 ft | 363 kts | 105° |
| 2026-04-25 19:22 | 50.99948 | 7.53166 | 14273 ft | 367 kts | 105° |
| 2026-04-25 19:22 | 50.99182 | 7.57057 | 15026 ft | 371 kts | 105° |
| 2026-04-25 19:22 | 50.97620 | 7.64968 | 16480 ft | 381 kts | 107° |
| 2026-04-25 19:23 | 50.96402 | 7.68716 | 17162 ft | 387 kts | 126° |
| 2026-04-25 19:23 | 50.92703 | 7.75020 | 18557 ft | 393 kts | 134° |
| 2026-04-25 19:23 | 50.90788 | 7.78148 | 19227 ft | 397 kts | 134° |
| 2026-04-25 19:24 | 50.88909 | 7.81382 | 19889 ft | 401 kts | 132° |
| 2026-04-25 19:24 | 50.87073 | 7.84720 | 20508 ft | 405 kts | 130° |
| 2026-04-25 19:24 | 50.83409 | 7.91612 | 21740 ft | 412 kts | 130° |
| 2026-04-25 19:25 | 50.79695 | 7.98534 | 22889 ft | 419 kts | 130° |
| 2026-04-25 19:25 | 50.77789 | 8.02031 | 23462 ft | 422 kts | 130° |
| 2026-04-25 19:25 | 50.75853 | 8.05559 | 23980 ft | 427 kts | 131° |
| 2026-04-25 19:26 | 50.73897 | 8.09113 | 24514 ft | 430 kts | 131° |
| 2026-04-25 19:26 | 50.71931 | 8.12682 | 24983 ft | 434 kts | 131° |
| 2026-04-25 19:26 | 50.69944 | 8.16286 | 25328 ft | 436 kts | 131° |
| 2026-04-25 19:26 | 50.67950 | 8.19904 | 25824 ft | 439 kts | 131° |
| 2026-04-25 19:27 | 50.65938 | 8.23553 | 26290 ft | 442 kts | 130° |
| 2026-04-25 19:27 | 50.65258 | 8.24786 | 26444 ft | 443 kts | 130° |
| 2026-04-25 19:27 | 50.61869 | 8.30913 | 27196 ft | 449 kts | 131° |
| 2026-04-25 19:27 | 50.59814 | 8.34623 | 27621 ft | 452 kts | 130° |
| 2026-04-25 19:28 | 50.58407 | 8.37150 | 27918 ft | 454 kts | 131° |
| 2026-04-25 19:28 | 50.56316 | 8.40887 | 28322 ft | 457 kts | 131° |
| 2026-04-25 19:28 | 50.54204 | 8.44643 | 28728 ft | 461 kts | 131° |
| 2026-04-25 19:28 | 50.52064 | 8.48439 | 29143 ft | 464 kts | 131° |
| 2026-04-25 19:29 | 50.49944 | 8.52199 | 29545 ft | 468 kts | 131° |
| 2026-04-25 19:29 | 50.47753 | 8.56088 | 29946 ft | 471 kts | 130° |
| 2026-04-25 19:29 | 50.45577 | 8.59953 | 30336 ft | 474 kts | 130° |
| 2026-04-25 19:29 | 50.43355 | 8.63796 | 30722 ft | 477 kts | 133° |
| 2026-04-25 19:30 | 50.41027 | 8.67524 | 31116 ft | 479 kts | 135° |
| 2026-04-25 19:30 | 50.38652 | 8.71099 | 31485 ft | 481 kts | 137° |
| 2026-04-25 19:30 | 50.36160 | 8.74722 | 31871 ft | 483 kts | 137° |
| 2026-04-25 19:30 | 50.33730 | 8.78227 | 32367 ft | 481 kts | 137° |
| 2026-04-25 19:31 | 50.31281 | 8.81786 | 32872 ft | 480 kts | 137° |
| 2026-04-25 19:31 | 50.28853 | 8.85360 | 33381 ft | 478 kts | 137° |
| 2026-04-25 19:31 | 50.26454 | 8.88939 | 33886 ft | 476 kts | 136° |
| 2026-04-25 19:31 | 50.24068 | 8.92530 | 34380 ft | 474 kts | 136° |
| 2026-04-25 19:32 | 50.21704 | 8.96091 | 34847 ft | 473 kts | 136° |
| 2026-04-25 19:32 | 50.19331 | 8.99654 | 35281 ft | 472 kts | 137° |
| 2026-04-25 19:32 | 50.17081 | 9.03376 | 35662 ft | 472 kts | 126° |
| 2026-04-25 19:32 | 50.15918 | 9.06237 | 35903 ft | 471 kts | 115° |
| 2026-04-25 19:33 | 50.14145 | 9.12478 | 36393 ft | 470 kts | 112° |
| 2026-04-25 19:33 | 50.12852 | 9.17163 | 36745 ft | 470 kts | 112° |
| 2026-04-25 19:33 | 50.11561 | 9.21840 | 37097 ft | 470 kts | 112° |
| 2026-04-25 19:33 | 50.10235 | 9.26495 | 37430 ft | 470 kts | 114° |
| 2026-04-25 19:34 | 50.08840 | 9.31090 | 37763 ft | 470 kts | 115° |
| 2026-04-25 19:34 | 50.07391 | 9.35643 | 38107 ft | 469 kts | 116° |
| 2026-04-25 19:34 | 50.05920 | 9.40165 | 38431 ft | 468 kts | 116° |
| 2026-04-25 19:34 | 50.04448 | 9.44683 | 38750 ft | 468 kts | 116° |
| 2026-04-25 19:35 | 50.02991 | 9.49200 | 39043 ft | 468 kts | 116° |
| 2026-04-25 19:35 | 50.01545 | 9.53732 | 39120 ft | 468 kts | 116° |
| 2026-04-25 19:35 | 49.98674 | 9.62819 | 39131 ft | 468 kts | 116° |
| 2026-04-25 19:36 | 49.95825 | 9.71829 | 39130 ft | 467 kts | 116° |
| 2026-04-25 19:36 | 49.92948 | 9.80891 | 39139 ft | 468 kts | 116° |
| 2026-04-25 19:37 | 49.90065 | 9.89938 | 39137 ft | 468 kts | 116° |
| 2026-04-25 19:37 | 49.87164 | 9.98977 | 39135 ft | 468 kts | 116° |
| 2026-04-25 19:38 | 49.84263 | 10.08005 | 39130 ft | 468 kts | 116° |
| 2026-04-25 19:38 | 49.81359 | 10.17035 | 39132 ft | 468 kts | 116° |
| 2026-04-25 19:39 | 49.78445 | 10.26037 | 39125 ft | 469 kts | 116° |
| 2026-04-25 19:39 | 49.75508 | 10.35054 | 39126 ft | 469 kts | 116° |
| 2026-04-25 19:40 | 49.72573 | 10.44039 | 39123 ft | 468 kts | 116° |
| 2026-04-25 19:40 | 49.69648 | 10.53009 | 39119 ft | 468 kts | 116° |
| 2026-04-25 19:41 | 49.66711 | 10.61977 | 39117 ft | 468 kts | 117° |
| 2026-04-25 19:41 | 49.64260 | 10.69412 | 39118 ft | 468 kts | 116° |
| 2026-04-25 19:42 | 49.60805 | 10.79842 | 39108 ft | 463 kts | 117° |
| 2026-04-25 19:42 | 49.57923 | 10.88513 | 39110 ft | 449 kts | 116° |
| 2026-04-25 19:43 | 49.55097 | 10.96997 | 39110 ft | 447 kts | 117° |
| 2026-04-25 19:43 | 49.52247 | 11.05544 | 39110 ft | 443 kts | 117° |
| 2026-04-25 19:44 | 49.49483 | 11.13917 | 39109 ft | 442 kts | 116° |
| 2026-04-25 19:44 | 49.46717 | 11.22373 | 39110 ft | 442 kts | 116° |
| 2026-04-25 19:45 | 49.43952 | 11.30806 | 39109 ft | 442 kts | 116° |
| 2026-04-25 19:45 | 49.41175 | 11.39224 | 39106 ft | 442 kts | 116° |
| 2026-04-25 19:46 | 49.38381 | 11.47635 | 39098 ft | 442 kts | 117° |
| 2026-04-25 19:46 | 49.35578 | 11.56039 | 39093 ft | 443 kts | 117° |
| 2026-04-25 19:47 | 49.32769 | 11.64437 | 39089 ft | 443 kts | 117° |
| 2026-04-25 19:47 | 49.29950 | 11.72822 | 39087 ft | 443 kts | 117° |
| 2026-04-25 19:48 | 49.27123 | 11.81204 | 39086 ft | 443 kts | 117° |
| 2026-04-25 19:48 | 49.24298 | 11.89577 | 39084 ft | 443 kts | 117° |
| 2026-04-25 19:49 | 49.22430 | 11.95115 | 39084 ft | 443 kts | 117° |
| 2026-04-25 19:49 | 49.18656 | 12.06248 | 39090 ft | 443 kts | 117° |
| 2026-04-25 19:50 | 49.14383 | 12.18757 | 39087 ft | 443 kts | 117° |
| 2026-04-25 19:51 | 49.11527 | 12.27096 | 39088 ft | 442 kts | 117° |
| 2026-04-25 19:51 | 49.08669 | 12.35406 | 39088 ft | 442 kts | 118° |
| 2026-04-25 19:52 | 49.05809 | 12.43694 | 39086 ft | 442 kts | 118° |
| 2026-04-25 19:52 | 49.02949 | 12.51971 | 39087 ft | 441 kts | 118° |
| 2026-04-25 19:53 | 49.00087 | 12.60221 | 39087 ft | 441 kts | 118° |
| 2026-04-25 19:53 | 48.97206 | 12.68493 | 39085 ft | 441 kts | 118° |
| 2026-04-25 19:54 | 48.94329 | 12.76733 | 39084 ft | 441 kts | 118° |
| 2026-04-25 19:54 | 48.91452 | 12.84963 | 39084 ft | 440 kts | 118° |
| 2026-04-25 19:55 | 48.88569 | 12.93178 | 39086 ft | 440 kts | 118° |
| 2026-04-25 19:55 | 48.85678 | 13.01372 | 39085 ft | 441 kts | 118° |
| 2026-04-25 19:55 | 48.84080 | 13.05326 | 39084 ft | 439 kts | 131° |
| 2026-04-25 19:56 | 48.81916 | 13.08528 | 39081 ft | 433 kts | 148° |
| 2026-04-25 19:56 | 48.76843 | 13.13377 | 39069 ft | 431 kts | 152° |
| 2026-04-25 19:57 | 48.71723 | 13.18110 | 39065 ft | 431 kts | 152° |
| 2026-04-25 19:57 | 48.66636 | 13.22791 | 39064 ft | 431 kts | 152° |
| 2026-04-25 19:58 | 48.61518 | 13.27521 | 39068 ft | 431 kts | 152° |
| 2026-04-25 19:58 | 48.56403 | 13.32249 | 39070 ft | 431 kts | 152° |
| 2026-04-25 19:59 | 48.51285 | 13.36971 | 39068 ft | 431 kts | 152° |
| 2026-04-25 19:59 | 48.46164 | 13.41679 | 39068 ft | 431 kts | 152° |
| 2026-04-25 20:00 | 48.41054 | 13.46356 | 39071 ft | 430 kts | 152° |
| 2026-04-25 20:00 | 48.35943 | 13.51028 | 39073 ft | 430 kts | 152° |
| 2026-04-25 20:01 | 48.28309 | 13.57988 | 38223 ft | 428 kts | 152° |
| 2026-04-25 20:01 | 48.25786 | 13.60277 | 37798 ft | 428 kts | 152° |
| 2026-04-25 20:01 | 48.23190 | 13.62632 | 37332 ft | 429 kts | 152° |
| 2026-04-25 20:02 | 48.20637 | 13.64946 | 36862 ft | 429 kts | 152° |
| 2026-04-25 20:02 | 48.18086 | 13.67258 | 36383 ft | 429 kts | 152° |
| 2026-04-25 20:02 | 48.15532 | 13.69576 | 35896 ft | 429 kts | 152° |
| 2026-04-25 20:02 | 48.12978 | 13.71892 | 35347 ft | 430 kts | 152° |
| 2026-04-25 20:03 | 48.10419 | 13.74208 | 35078 ft | 431 kts | 152° |
| 2026-04-25 20:03 | 48.07845 | 13.76532 | 35065 ft | 433 kts | 152° |
| 2026-04-25 20:03 | 48.02667 | 13.81187 | 35067 ft | 436 kts | 152° |
| 2026-04-25 20:04 | 47.97453 | 13.85857 | 35065 ft | 437 kts | 152° |
| 2026-04-25 20:04 | 47.92265 | 13.90503 | 35068 ft | 439 kts | 152° |
| 2026-04-25 20:05 | 47.87022 | 13.95195 | 35075 ft | 440 kts | 152° |
| 2026-04-25 20:05 | 47.81773 | 13.99871 | 35067 ft | 439 kts | 153° |
| 2026-04-25 20:06 | 47.76531 | 14.04534 | 35065 ft | 439 kts | 153° |
| 2026-04-25 20:06 | 47.71289 | 14.09191 | 35062 ft | 439 kts | 153° |
| 2026-04-25 20:07 | 47.66054 | 14.13826 | 35062 ft | 438 kts | 153° |
| 2026-04-25 20:07 | 47.60815 | 14.18460 | 35059 ft | 438 kts | 153° |
| 2026-04-25 20:08 | 47.55577 | 14.23078 | 35053 ft | 438 kts | 153° |
| 2026-04-25 20:08 | 47.50336 | 14.27681 | 35048 ft | 438 kts | 153° |
| 2026-04-25 20:09 | 47.45096 | 14.32271 | 35045 ft | 438 kts | 153° |
| 2026-04-25 20:09 | 47.42472 | 14.34564 | 34601 ft | 440 kts | 153° |
| 2026-04-25 20:09 | 47.39828 | 14.36872 | 34061 ft | 441 kts | 153° |
| 2026-04-25 20:10 | 47.38084 | 14.38397 | 33812 ft | 440 kts | 153° |
| 2026-04-25 20:10 | 47.34560 | 14.41475 | 33478 ft | 440 kts | 154° |
| 2026-04-25 20:10 | 47.31928 | 14.43771 | 33227 ft | 438 kts | 154° |
| 2026-04-25 20:10 | 47.29350 | 14.46017 | 32978 ft | 436 kts | 154° |
| 2026-04-25 20:11 | 47.26707 | 14.48315 | 32722 ft | 434 kts | 154° |
| 2026-04-25 20:11 | 47.24116 | 14.50564 | 32484 ft | 432 kts | 154° |
| 2026-04-25 20:11 | 47.21566 | 14.52778 | 32228 ft | 429 kts | 154° |
| 2026-04-25 20:11 | 47.18993 | 14.55005 | 31973 ft | 427 kts | 154° |
| 2026-04-25 20:12 | 47.16442 | 14.57214 | 31727 ft | 425 kts | 154° |
| 2026-04-25 20:12 | 47.13903 | 14.59413 | 31477 ft | 423 kts | 154° |
| 2026-04-25 20:12 | 47.11371 | 14.61601 | 31226 ft | 421 kts | 154° |
| 2026-04-25 20:12 | 47.10520 | 14.62335 | 31137 ft | 420 kts | 154° |
| 2026-04-25 20:13 | 47.06343 | 14.65934 | 30727 ft | 417 kts | 154° |
| 2026-04-25 20:13 | 47.03849 | 14.68078 | 30479 ft | 415 kts | 154° |
| 2026-04-25 20:13 | 47.01375 | 14.70202 | 30175 ft | 410 kts | 154° |
| 2026-04-25 20:13 | 46.98924 | 14.72302 | 29755 ft | 408 kts | 154° |
| 2026-04-25 20:14 | 46.96492 | 14.74388 | 29545 ft | 400 kts | 154° |
| 2026-04-25 20:14 | 46.94112 | 14.76434 | 29425 ft | 391 kts | 154° |
| 2026-04-25 20:14 | 46.91798 | 14.78424 | 29297 ft | 382 kts | 155° |
| 2026-04-25 20:14 | 46.89528 | 14.80370 | 29154 ft | 373 kts | 155° |
| 2026-04-25 20:15 | 46.87316 | 14.82264 | 29012 ft | 364 kts | 155° |
| 2026-04-25 20:15 | 46.85138 | 14.84124 | 29033 ft | 362 kts | 155° |
| 2026-04-25 20:15 | 46.82890 | 14.86022 | 28383 ft | 388 kts | 155° |
| 2026-04-25 20:15 | 46.80488 | 14.88035 | 27333 ft | 407 kts | 154° |
| 2026-04-25 20:16 | 46.77988 | 14.90142 | 26283 ft | 422 kts | 154° |
| 2026-04-25 20:16 | 46.75461 | 14.92294 | 25927 ft | 416 kts | 153° |
| 2026-04-25 20:16 | 46.72992 | 14.94411 | 25548 ft | 410 kts | 153° |
| 2026-04-25 20:16 | 46.70542 | 14.96508 | 24958 ft | 406 kts | 153° |
| 2026-04-25 20:17 | 46.68144 | 14.98552 | 24371 ft | 403 kts | 153° |
| 2026-04-25 20:17 | 46.65737 | 15.00594 | 23871 ft | 397 kts | 153° |
| 2026-04-25 20:17 | 46.63370 | 15.02601 | 23413 ft | 390 kts | 153° |
| 2026-04-25 20:17 | 46.61047 | 15.04565 | 22957 ft | 382 kts | 153° |
| 2026-04-25 20:18 | 46.58771 | 15.06483 | 22511 ft | 375 kts | 153° |
| 2026-04-25 20:18 | 46.56520 | 15.08376 | 22066 ft | 373 kts | 153° |
| 2026-04-25 20:18 | 46.54286 | 15.10252 | 21626 ft | 370 kts | 153° |
| 2026-04-25 20:18 | 46.52063 | 15.12117 | 21183 ft | 368 kts | 153° |
| 2026-04-25 20:19 | 46.49865 | 15.13962 | 20733 ft | 363 kts | 153° |
| 2026-04-25 20:19 | 46.47701 | 15.15784 | 20312 ft | 356 kts | 153° |
| 2026-04-25 20:19 | 46.46291 | 15.16969 | 20024 ft | 351 kts | 153° |
| 2026-04-25 20:19 | 46.43494 | 15.19320 | 19468 ft | 343 kts | 153° |
| 2026-04-25 20:20 | 46.41452 | 15.21035 | 19052 ft | 337 kts | 153° |
| 2026-04-25 20:20 | 46.40117 | 15.22154 | 18790 ft | 333 kts | 153° |
| 2026-04-25 20:20 | 46.38112 | 15.23827 | 18388 ft | 333 kts | 153° |
| 2026-04-25 20:20 | 46.36103 | 15.25497 | 17981 ft | 332 kts | 153° |
| 2026-04-25 20:21 | 46.34105 | 15.27160 | 17586 ft | 332 kts | 153° |
| 2026-04-25 20:21 | 46.32107 | 15.28825 | 17186 ft | 331 kts | 153° |
| 2026-04-25 20:21 | 46.30113 | 15.30488 | 16785 ft | 330 kts | 153° |
| 2026-04-25 20:21 | 46.28126 | 15.32145 | 16387 ft | 329 kts | 153° |
| 2026-04-25 20:22 | 46.26142 | 15.33794 | 15991 ft | 328 kts | 153° |
| 2026-04-25 20:22 | 46.24834 | 15.34880 | 15732 ft | 327 kts | 152° |
| 2026-04-25 20:22 | 46.22201 | 15.37064 | 15205 ft | 326 kts | 152° |
| 2026-04-25 20:22 | 46.20238 | 15.38691 | 14811 ft | 324 kts | 152° |
| 2026-04-25 20:23 | 46.18301 | 15.40298 | 14422 ft | 319 kts | 152° |
| 2026-04-25 20:23 | 46.16393 | 15.41881 | 14043 ft | 314 kts | 152° |
| 2026-04-25 20:23 | 46.14516 | 15.43435 | 13665 ft | 308 kts | 152° |
| 2026-04-25 20:23 | 46.12661 | 15.44968 | 13292 ft | 306 kts | 152° |
| 2026-04-25 20:24 | 46.10842 | 15.46473 | 12933 ft | 306 kts | 152° |
| 2026-04-25 20:24 | 46.08995 | 15.48001 | 12561 ft | 305 kts | 151° |
| 2026-04-25 20:24 | 46.07156 | 15.49522 | 12188 ft | 305 kts | 151° |
| 2026-04-25 20:24 | 46.05315 | 15.51038 | 11815 ft | 304 kts | 151° |
| 2026-04-25 20:25 | 46.03482 | 15.52547 | 11443 ft | 303 kts | 151° |
| 2026-04-25 20:25 | 46.01649 | 15.54054 | 11073 ft | 303 kts | 151° |
| 2026-04-25 20:25 | 45.99822 | 15.55556 | 10694 ft | 302 kts | 151° |
| 2026-04-25 20:25 | 45.98001 | 15.57052 | 10320 ft | 301 kts | 151° |
| 2026-04-25 20:26 | 45.96186 | 15.58544 | 9954 ft | 300 kts | 151° |
| 2026-04-25 20:26 | 45.94383 | 15.60028 | 9690 ft | 295 kts | 151° |
| 2026-04-25 20:26 | 45.92604 | 15.61491 | 9239 ft | 297 kts | 151° |
| 2026-04-25 20:26 | 45.90820 | 15.62957 | 8982 ft | 292 kts | 151° |
| 2026-04-25 20:27 | 45.89046 | 15.64407 | 8610 ft | 291 kts | 151° |
| 2026-04-25 20:27 | 45.87324 | 15.65815 | 8483 ft | 279 kts | 151° |
| 2026-04-25 20:27 | 45.85668 | 15.67170 | 8353 ft | 269 kts | 151° |
| 2026-04-25 20:27 | 45.84063 | 15.68476 | 8125 ft | 263 kts | 153° |
| 2026-04-25 20:28 | 45.82445 | 15.69671 | 7812 ft | 261 kts | 155° |
| 2026-04-25 20:28 | 45.80815 | 15.70791 | 7498 ft | 259 kts | 156° |
| 2026-04-25 20:28 | 45.79126 | 15.71591 | 7159 ft | 254 kts | 176° |
| 2026-04-25 20:28 | 45.77374 | 15.71610 | 6826 ft | 251 kts | 184° |
| 2026-04-25 20:29 | 45.75636 | 15.71499 | 6490 ft | 249 kts | 185° |
| 2026-04-25 20:29 | 45.73913 | 15.71370 | 6169 ft | 248 kts | 185° |
| 2026-04-25 20:29 | 45.72198 | 15.71234 | 5868 ft | 246 kts | 185° |
| 2026-04-25 20:29 | 45.70491 | 15.71093 | 5575 ft | 245 kts | 185° |
| 2026-04-25 20:30 | 45.69369 | 15.70998 | 5380 ft | 244 kts | 185° |
| 2026-04-25 20:30 | 45.67137 | 15.70808 | 5018 ft | 242 kts | 183° |
| 2026-04-25 20:30 | 45.65506 | 15.71266 | 4740 ft | 242 kts | 153° |
| 2026-04-25 20:30 | 45.64184 | 15.72735 | 4474 ft | 241 kts | 137° |
| 2026-04-25 20:31 | 45.63004 | 15.74392 | 4195 ft | 234 kts | 135° |
| 2026-04-25 20:31 | 45.61869 | 15.76024 | 3918 ft | 229 kts | 135° |
| 2026-04-25 20:31 | 45.60759 | 15.77620 | 3614 ft | 225 kts | 135° |
| 2026-04-25 20:31 | 45.59738 | 15.79294 | 3277 ft | 223 kts | 119° |
| 2026-04-25 20:32 | 45.59347 | 15.81396 | 3039 ft | 218 kts | 93° |
| 2026-04-25 20:32 | 45.59525 | 15.83516 | 3012 ft | 215 kts | 73° |
| 2026-04-25 20:32 | 45.60168 | 15.85401 | 3014 ft | 209 kts | 54° |
| 2026-04-25 20:32 | 45.61130 | 15.86945 | 3038 ft | 206 kts | 46° |
| 2026-04-25 20:33 | 45.62084 | 15.88383 | 3007 ft | 190 kts | 46° |
| 2026-04-25 20:33 | 45.62959 | 15.89705 | 3004 ft | 179 kts | 46° |
| 2026-04-25 20:33 | 45.63803 | 15.90979 | 2936 ft | 175 kts | 47° |
| 2026-04-25 20:33 | 45.64357 | 15.91817 | 2835 ft | 174 kts | 47° |
| 2026-04-25 20:34 | 45.65456 | 15.93479 | 2561 ft | 171 kts | 47° |
| 2026-04-25 20:34 | 45.66264 | 15.94700 | 2353 ft | 167 kts | 47° |
| 2026-04-25 20:34 | 45.67061 | 15.95907 | 2127 ft | 166 kts | 47° |
| 2026-04-25 20:34 | 45.67846 | 15.97108 | 1916 ft | 164 kts | 47° |
| 2026-04-25 20:35 | 45.68609 | 15.98265 | 1663 ft | 150 kts | 46° |
| 2026-04-25 20:35 | 45.69288 | 15.99283 | 1406 ft | 135 kts | 47° |
| 2026-04-25 20:35 | 45.69908 | 16.00235 | 1214 ft | 127 kts | 46° |
| 2026-04-25 20:35 | 45.70501 | 16.01131 | 1088 ft | 124 kts | 45° |
| 2026-04-25 20:36 | 45.71101 | 16.02038 | 949 ft | 124 kts | 45° |
| 2026-04-25 20:36 | 45.71689 | 16.02928 | 812 ft | 126 kts | 46° |
| 2026-04-25 20:36 | 45.72287 | 16.03839 | 661 ft | 125 kts | 46° |
| 2026-04-25 20:36 | 45.72889 | 16.04750 | 486 ft | 126 kts | 46° |
| 2026-04-25 20:37 | 45.73477 | 16.05643 | 364 ft | 114 kts | 47° |
| 2026-04-25 20:37 | 45.73946 | 16.06344 | 363 ft | 77 kts | 46° |
| 2026-04-25 20:37 | 45.74319 | 16.06916 | 365 ft | 80 kts | 47° |
| 2026-04-25 20:37 | 45.74699 | 16.07492 | 361 ft | 80 kts | 46° |
| 2026-04-25 20:38 | 45.74955 | 16.07885 | 361 ft | 28 kts | 57° |
| 2026-04-25 20:38 | 45.74875 | 16.08052 | 360 ft | 15 kts | 139° |
| 2026-04-25 20:38 | 45.74816 | 16.08067 | 364 ft | 11 kts | 213° |
| 2026-04-25 20:38 | 45.74756 | 16.07979 | 362 ft | 14 kts | 226° |
| 2026-04-25 20:39 | 45.74686 | 16.07871 | 359 ft | 16 kts | 226° |
| 2026-04-25 20:39 | 45.74606 | 16.07750 | 359 ft | 15 kts | 227° |
| 2026-04-25 20:39 | 45.74529 | 16.07712 | 363 ft | 13 kts | 144° |
| 2026-04-25 20:39 | 45.74482 | 16.07777 | 360 ft | 15 kts | 136° |
| 2026-04-25 20:40 | 45.74377 | 16.07907 | 360 ft | 13 kts | 160° |
| 2026-04-25 20:40 | 45.74309 | 16.07848 | 360 ft | 7 kts | 216° |
| 2026-04-25 20:40 | 45.74265 | 16.07888 | 361 ft | 8 kts | 136° |
| 2026-04-25 20:40 | 45.74240 | 16.07919 | 362 ft | 1 kts | 137° |
| 2026-04-25 20:41 | 45.74237 | 16.07924 | 362 ft | 0 kts | 137° |